sensor_id;sensor_type;location;lat;lon;timestamp;pressure;altitude;pressure_sealevel;temperature;humidity
34931;BME280;21134;49.646;8.560;2023-08-17T00:01:05;100564.38;;;19.84;100.00
34931;BME280;21134;49.646;8.560;2023-08-17T00:03:32;100564.09;;;19.92;99.53
34931;BME280;21134;49.646;8.560;2023-08-17T00:05:58;100563.66;;;19.81;100.00
34931;BME280;21134;49.646;8.560;2023-08-17T00:08:25;100559.25;;;19.83;99.95
34931;BME280;21134;49.646;8.560;2023-08-17T00:10:52;100564.63;;;19.78;100.00
34931;BME280;21134;49.646;8.560;2023-08-17T00:13:18;100570.59;;;19.80;100.00
34931;BME280;21134;49.646;8.560;2023-08-17T00:15:45;100570.78;;;19.76;100.00
34931;BME280;21134;49.646;8.560;2023-08-17T00:18:13;100571.75;;;19.73;100.00
34931;BME280;21134;49.646;8.560;2023-08-17T00:20:39;100565.53;;;19.77;100.00
34931;BME280;21134;49.646;8.560;2023-08-17T00:23:06;100571.53;;;19.79;100.00
34931;BME280;21134;49.646;8.560;2023-08-17T00:25:33;100568.81;;;19.82;98.73
34931;BME280;21134;49.646;8.560;2023-08-17T00:27:59;100572.28;;;19.81;99.27
34931;BME280;21134;49.646;8.560;2023-08-17T00:30:26;100568.97;;;19.78;99.16
34931;BME280;21134;49.646;8.560;2023-08-17T00:32:52;100566.38;;;19.78;99.61
34931;BME280;21134;49.646;8.560;2023-08-17T00:35:20;100564.00;;;19.71;99.74
34931;BME280;21134;49.646;8.560;2023-08-17T00:37:46;100558.88;;;19.70;100.00
34931;BME280;21134;49.646;8.560;2023-08-17T00:40:13;100562.94;;;19.54;100.00
34931;BME280;21134;49.646;8.560;2023-08-17T00:42:39;100560.94;;;19.37;100.00
34931;BME280;21134;49.646;8.560;2023-08-17T00:45:06;100557.25;;;19.19;100.00
34931;BME280;21134;49.646;8.560;2023-08-17T00:47:33;100557.47;;;19.13;100.00
34931;BME280;21134;49.646;8.560;2023-08-17T00:50:00;100559.22;;;19.12;100.00
34931;BME280;21134;49.646;8.560;2023-08-17T00:52:28;100561.97;;;19.08;100.00
34931;BME280;21134;49.646;8.560;2023-08-17T00:54:55;100555.94;;;19.07;100.00
34931;BME280;21134;49.646;8.560;2023-08-17T00:57:23;100548.25;;;19.04;100.00
34931;BME280;21134;49.646;8.560;2023-08-17T00:59:50;100557.69;;;19.07;100.00
34931;BME280;21134;49.646;8.560;2023-08-17T01:02:17;100548.25;;;19.04;100.00
34931;BME280;21134;49.646;8.560;2023-08-17T01:04:44;100551.06;;;18.98;100.00
34931;BME280;21134;49.646;8.560;2023-08-17T01:07:11;100549.44;;;18.95;100.00
34931;BME280;21134;49.646;8.560;2023-08-17T01:09:39;100538.28;;;18.93;100.00
34931;BME280;21134;49.646;8.560;2023-08-17T01:12:13;100546.97;;;18.92;100.00
34931;BME280;21134;49.646;8.560;2023-08-17T01:14:49;100547.06;;;18.89;100.00
34931;BME280;21134;49.646;8.560;2023-08-17T01:17:19;100548.84;;;18.87;100.00
34931;BME280;21134;49.646;8.560;2023-08-17T01:19:49;100546.00;;;18.95;100.00
34931;BME280;21134;49.646;8.560;2023-08-17T01:22:17;100555.00;;;18.85;100.00
34931;BME280;21134;49.646;8.560;2023-08-17T01:24:48;100545.66;;;18.79;100.00
34931;BME280;21134;49.646;8.560;2023-08-17T01:27:15;100545.00;;;18.74;100.00
34931;BME280;21134;49.646;8.560;2023-08-17T01:29:42;100539.19;;;18.66;100.00
34931;BME280;21134;49.646;8.560;2023-08-17T01:32:12;100535.72;;;18.67;100.00
34931;BME280;21134;49.646;8.560;2023-08-17T01:34:47;100542.56;;;18.68;100.00
34931;BME280;21134;49.646;8.560;2023-08-17T01:37:18;100536.66;;;18.64;100.00
34931;BME280;21134;49.646;8.560;2023-08-17T01:39:51;100541.09;;;18.61;100.00
34931;BME280;21134;49.646;8.560;2023-08-17T01:42:19;100533.47;;;18.56;100.00
34931;BME280;21134;49.646;8.560;2023-08-17T01:44:46;100534.50;;;18.50;100.00
34931;BME280;21134;49.646;8.560;2023-08-17T01:47:13;100532.16;;;18.43;100.00
34931;BME280;21134;49.646;8.560;2023-08-17T01:49:41;100527.81;;;18.45;100.00
34931;BME280;21134;49.646;8.560;2023-08-17T01:52:07;100520.06;;;18.43;100.00
34931;BME280;21134;49.646;8.560;2023-08-17T01:54:34;100524.38;;;18.44;100.00
34931;BME280;21134;49.646;8.560;2023-08-17T01:57:02;100525.09;;;18.48;100.00
34931;BME280;21134;49.646;8.560;2023-08-17T01:59:28;100525.88;;;18.50;100.00
34931;BME280;21134;49.646;8.560;2023-08-17T02:01:55;100519.13;;;18.46;100.00
34931;BME280;21134;49.646;8.560;2023-08-17T02:04:21;100527.81;;;18.45;100.00
34931;BME280;21134;49.646;8.560;2023-08-17T02:06:48;100525.25;;;18.43;100.00
34931;BME280;21134;49.646;8.560;2023-08-17T02:09:14;100515.78;;;18.42;100.00
34931;BME280;21134;49.646;8.560;2023-08-17T02:11:41;100524.59;;;18.36;100.00
34931;BME280;21134;49.646;8.560;2023-08-17T02:14:08;100516.78;;;18.38;100.00
34931;BME280;21134;49.646;8.560;2023-08-17T02:16:35;100520.41;;;18.32;100.00
34931;BME280;21134;49.646;8.560;2023-08-17T02:19:01;100514.22;;;18.36;100.00
34931;BME280;21134;49.646;8.560;2023-08-17T02:21:28;100509.25;;;18.30;100.00
34931;BME280;21134;49.646;8.560;2023-08-17T02:23:55;100517.03;;;18.30;100.00
34931;BME280;21134;49.646;8.560;2023-08-17T02:26:21;100508.41;;;18.30;100.00
34931;BME280;21134;49.646;8.560;2023-08-17T02:28:48;100505.72;;;18.33;100.00
34931;BME280;21134;49.646;8.560;2023-08-17T02:31:16;100500.88;;;18.49;100.00
34931;BME280;21134;49.646;8.560;2023-08-17T02:33:42;100500.03;;;18.48;100.00
34931;BME280;21134;49.646;8.560;2023-08-17T02:36:08;100506.09;;;18.47;100.00
34931;BME280;21134;49.646;8.560;2023-08-17T02:38:35;100506.16;;;18.46;100.00
34931;BME280;21134;49.646;8.560;2023-08-17T02:41:01;100506.63;;;18.32;100.00
34931;BME280;21134;49.646;8.560;2023-08-17T02:43:28;100502.59;;;18.23;100.00
34931;BME280;21134;49.646;8.560;2023-08-17T02:45:54;100498.31;;;18.22;100.00
34931;BME280;21134;49.646;8.560;2023-08-17T02:48:23;100507.66;;;18.26;100.00
34931;BME280;21134;49.646;8.560;2023-08-17T02:50:49;100505.00;;;18.28;100.00
34931;BME280;21134;49.646;8.560;2023-08-17T02:53:16;100508.25;;;18.34;100.00
34931;BME280;21134;49.646;8.560;2023-08-17T02:55:42;100507.00;;;18.46;100.00
34931;BME280;21134;49.646;8.560;2023-08-17T02:58:09;100521.06;;;18.39;100.00
34931;BME280;21134;49.646;8.560;2023-08-17T03:00:35;100512.44;;;18.39;100.00
34931;BME280;21134;49.646;8.560;2023-08-17T03:03:02;100515.06;;;18.37;100.00
34931;BME280;21134;49.646;8.560;2023-08-17T03:05:30;100515.78;;;18.42;100.00
34931;BME280;21134;49.646;8.560;2023-08-17T03:07:56;100518.31;;;18.44;100.00
34931;BME280;21134;49.646;8.560;2023-08-17T03:10:23;100520.16;;;18.40;100.00
34931;BME280;21134;49.646;8.560;2023-08-17T03:12:50;100516.78;;;18.38;100.00
34931;BME280;21134;49.646;8.560;2023-08-17T03:15:16;100515.72;;;18.44;100.00
34931;BME280;21134;49.646;8.560;2023-08-17T03:17:43;100508.75;;;18.46;100.00
34931;BME280;21134;49.646;8.560;2023-08-17T03:20:10;100504.41;;;18.46;100.00
34931;BME280;21134;49.646;8.560;2023-08-17T03:22:38;100508.94;;;18.40;100.00
34931;BME280;21134;49.646;8.560;2023-08-17T03:25:05;100502.31;;;18.31;100.00
34931;BME280;21134;49.646;8.560;2023-08-17T03:27:32;100508.22;;;18.36;100.00
34931;BME280;21134;49.646;8.560;2023-08-17T03:29:59;100506.63;;;18.32;100.00
34931;BME280;21134;49.646;8.560;2023-08-17T03:32:25;100516.59;;;18.44;100.00
34931;BME280;21134;49.646;8.560;2023-08-17T03:34:52;100516.81;;;18.36;100.00
34931;BME280;21134;49.646;8.560;2023-08-17T03:37:18;100515.81;;;18.41;100.00
34931;BME280;21134;49.646;8.560;2023-08-17T03:39:46;100522.81;;;18.39;100.00
34931;BME280;21134;49.646;8.560;2023-08-17T03:42:12;100525.13;;;18.46;100.00
34931;BME280;21134;49.646;8.560;2023-08-17T03:44:39;100515.31;;;18.56;100.00
34931;BME280;21134;49.646;8.560;2023-08-17T03:47:05;100514.53;;;18.54;100.00
34931;BME280;21134;49.646;8.560;2023-08-17T03:49:32;100518.94;;;18.50;100.00
34931;BME280;21134;49.646;8.560;2023-08-17T03:51:58;100528.38;;;18.53;100.00
34931;BME280;21134;49.646;8.560;2023-08-17T03:54:25;100523.59;;;18.41;100.00
34931;BME280;21134;49.646;8.560;2023-08-17T03:56:53;100533.19;;;18.39;100.00
34931;BME280;21134;49.646;8.560;2023-08-17T03:59:19;100530.72;;;18.34;100.00
34931;BME280;21134;49.646;8.560;2023-08-17T04:01:46;100521.91;;;18.40;100.00
34931;BME280;21134;49.646;8.560;2023-08-17T04:04:12;100524.69;;;18.33;100.00
34931;BME280;21134;49.646;8.560;2023-08-17T04:06:39;100520.81;;;18.47;100.00
34931;BME280;21134;49.646;8.560;2023-08-17T04:09:06;100522.50;;;18.48;100.00
34931;BME280;21134;49.646;8.560;2023-08-17T04:11:34;100526.28;;;18.38;100.00
34931;BME280;21134;49.646;8.560;2023-08-17T04:14:03;100526.97;;;18.44;100.00
34931;BME280;21134;49.646;8.560;2023-08-17T04:16:29;100525.88;;;18.50;100.00
34931;BME280;21134;49.646;8.560;2023-08-17T04:18:56;100533.56;;;18.53;100.00
34931;BME280;21134;49.646;8.560;2023-08-17T04:21:22;100532.91;;;18.46;100.00
34931;BME280;21134;49.646;8.560;2023-08-17T04:23:48;100537.41;;;18.41;100.00
34931;BME280;21134;49.646;8.560;2023-08-17T04:26:15;100535.66;;;18.42;100.00
34931;BME280;21134;49.646;8.560;2023-08-17T04:28:41;100545.84;;;18.48;100.00
34931;BME280;21134;49.646;8.560;2023-08-17T04:31:09;100545.09;;;18.44;100.00
34931;BME280;21134;49.646;8.560;2023-08-17T04:33:36;100542.28;;;18.50;100.00
34931;BME280;21134;49.646;8.560;2023-08-17T04:36:03;100541.09;;;18.61;100.00
34931;BME280;21134;49.646;8.560;2023-08-17T04:38:30;100542.28;;;18.50;100.00
34931;BME280;21134;49.646;8.560;2023-08-17T04:40:56;100538.72;;;18.54;100.00
34931;BME280;21134;49.646;8.560;2023-08-17T04:43:23;100548.78;;;18.64;100.00
34931;BME280;21134;49.646;8.560;2023-08-17T04:45:49;100542.78;;;18.62;100.00
34931;BME280;21134;49.646;8.560;2023-08-17T04:48:17;100545.28;;;18.65;100.00
34931;BME280;21134;49.646;8.560;2023-08-17T04:50:44;100545.56;;;18.55;100.00
34931;BME280;21134;49.646;8.560;2023-08-17T04:53:11;100546.31;;;18.59;100.00
34931;BME280;21134;49.646;8.560;2023-08-17T04:55:37;100549.91;;;18.55;100.00
34931;BME280;21134;49.646;8.560;2023-08-17T04:58:04;100548.16;;;18.55;100.00
34931;BME280;21134;49.646;8.560;2023-08-17T05:00:30;100553.06;;;18.63;100.00
34931;BME280;21134;49.646;8.560;2023-08-17T05:02:57;100550.34;;;18.68;100.00
34931;BME280;21134;49.646;8.560;2023-08-17T05:05:25;100555.72;;;18.62;100.00
34931;BME280;21134;49.646;8.560;2023-08-17T05:07:52;100557.53;;;18.59;100.00
34931;BME280;21134;49.646;8.560;2023-08-17T05:10:19;100552.69;;;18.75;100.00
34931;BME280;21134;49.646;8.560;2023-08-17T05:12:45;100565.72;;;18.74;100.00
34931;BME280;21134;49.646;8.560;2023-08-17T05:15:12;100566.31;;;18.82;100.00
34931;BME280;21134;49.646;8.560;2023-08-17T05:17:39;100562.19;;;18.76;100.00
34931;BME280;21134;49.646;8.560;2023-08-17T05:20:05;100564.97;;;18.70;100.00
34931;BME280;21134;49.646;8.560;2023-08-17T05:22:34;100563.19;;;18.72;100.00
34931;BME280;21134;49.646;8.560;2023-08-17T05:25:01;100571.13;;;18.66;100.00
34931;BME280;21134;49.646;8.560;2023-08-17T05:27:28;100565.72;;;18.74;100.00
34931;BME280;21134;49.646;8.560;2023-08-17T05:29:54;100563.91;;;18.76;100.00
34931;BME280;21134;49.646;8.560;2023-08-17T05:32:21;100572.66;;;18.72;100.00
34931;BME280;21134;49.646;8.560;2023-08-17T05:34:47;100572.66;;;18.72;100.00
34931;BME280;21134;49.646;8.560;2023-08-17T05:37:14;100568.69;;;18.88;100.00
34931;BME280;21134;49.646;8.560;2023-08-17T05:39:43;100579.16;;;18.85;100.00
34931;BME280;21134;49.646;8.560;2023-08-17T05:42:09;100583.09;;;18.97;100.00
34931;BME280;21134;49.646;8.560;2023-08-17T05:44:36;100590.16;;;18.92;100.00
34931;BME280;21134;49.646;8.560;2023-08-17T05:47:03;100592.63;;;18.96;100.00
34931;BME280;21134;49.646;8.560;2023-08-17T05:49:29;100590.16;;;18.92;100.00
34931;BME280;21134;49.646;8.560;2023-08-17T05:51:56;100582.25;;;18.96;100.00
34931;BME280;21134;49.646;8.560;2023-08-17T05:54:22;100576.56;;;18.85;100.00
34931;BME280;21134;49.646;8.560;2023-08-17T05:56:50;100580.56;;;18.95;100.00
34931;BME280;21134;49.646;8.560;2023-08-17T05:59:17;100578.53;;;19.03;100.00
34931;BME280;21134;49.646;8.560;2023-08-17T06:01:44;100581.94;;;19.31;100.00
34931;BME280;21134;49.646;8.560;2023-08-17T06:04:10;100589.13;;;19.46;100.00
34931;BME280;21134;49.646;8.560;2023-08-17T06:06:37;100586.66;;;19.43;100.00
34931;BME280;21134;49.646;8.560;2023-08-17T06:09:04;100587.22;;;19.51;100.00
34931;BME280;21134;49.646;8.560;2023-08-17T06:11:31;100583.84;;;19.49;100.00
34931;BME280;21134;49.646;8.560;2023-08-17T06:13:59;100581.50;;;19.66;100.00
34931;BME280;21134;49.646;8.560;2023-08-17T06:16:26;100584.00;;;19.69;100.00
34931;BME280;21134;49.646;8.560;2023-08-17T06:18:52;100585.38;;;19.78;100.00
34931;BME280;21134;49.646;8.560;2023-08-17T06:21:19;100588.13;;;19.97;100.00
34931;BME280;21134;49.646;8.560;2023-08-17T06:23:45;100589.13;;;19.94;100.00
34931;BME280;21134;49.646;8.560;2023-08-17T06:26:12;100584.47;;;20.03;100.00
34931;BME280;21134;49.646;8.560;2023-08-17T06:28:38;100589.00;;;19.97;100.00
34931;BME280;21134;49.646;8.560;2023-08-17T06:31:06;100589.13;;;19.94;100.00
34931;BME280;21134;49.646;8.560;2023-08-17T06:33:33;100588.44;;;19.89;100.00
34931;BME280;21134;49.646;8.560;2023-08-17T06:35:59;100589.53;;;20.06;100.00
34931;BME280;21134;49.646;8.560;2023-08-17T06:38:26;100591.72;;;20.16;100.00
34931;BME280;21134;49.646;8.560;2023-08-17T06:40:52;100586.94;;;20.28;100.00
34931;BME280;21134;49.646;8.560;2023-08-17T06:43:19;100586.34;;;20.43;99.96
34931;BME280;21134;49.646;8.560;2023-08-17T06:45:45;100589.06;;;20.40;100.00
34931;BME280;21134;49.646;8.560;2023-08-17T06:48:13;100587.31;;;20.40;99.94
34931;BME280;21134;49.646;8.560;2023-08-17T06:50:40;100584.69;;;20.40;100.00
34931;BME280;21134;49.646;8.560;2023-08-17T06:53:06;100585.38;;;20.46;99.98
34931;BME280;21134;49.646;8.560;2023-08-17T06:55:33;100587.56;;;20.56;98.92
34931;BME280;21134;49.646;8.560;2023-08-17T06:58:00;100590.53;;;20.67;98.83
34931;BME280;21134;49.646;8.560;2023-08-17T07:00:26;100596.03;;;20.61;98.01
34931;BME280;21134;49.646;8.560;2023-08-17T07:02:52;100589.25;;;20.57;99.14
34931;BME280;21134;49.646;8.560;2023-08-17T07:05:20;100590.63;;;20.44;99.36
34931;BME280;21134;49.646;8.560;2023-08-17T07:07:47;100595.78;;;20.46;99.20
34931;BME280;21134;49.646;8.560;2023-08-17T07:10:14;100598.28;;;20.47;99.56
34931;BME280;21134;49.646;8.560;2023-08-17T07:12:40;100599.00;;;20.51;98.71
34931;BME280;21134;49.646;8.560;2023-08-17T07:15:07;100598.16;;;20.52;99.30
34931;BME280;21134;49.646;8.560;2023-08-17T07:17:34;100588.53;;;20.54;98.55
34931;BME280;21134;49.646;8.560;2023-08-17T07:20:02;100605.06;;;20.73;98.07
34931;BME280;21134;49.646;8.560;2023-08-17T07:22:30;100607.75;;;20.72;98.10
34931;BME280;21134;49.646;8.560;2023-08-17T07:24:56;100609.97;;;20.81;96.80
34931;BME280;21134;49.646;8.560;2023-08-17T07:27:23;100618.22;;;20.90;96.18
34931;BME280;21134;49.646;8.560;2023-08-17T07:29:49;100622.25;;;20.98;95.33
34931;BME280;21134;49.646;8.560;2023-08-17T07:32:16;100609.84;;;21.04;95.46
34931;BME280;21134;49.646;8.560;2023-08-17T07:34:42;100616.19;;;21.18;94.42
34931;BME280;21134;49.646;8.560;2023-08-17T07:37:09;100607.28;;;21.23;93.09
34931;BME280;21134;49.646;8.560;2023-08-17T07:39:37;100603.91;;;21.42;92.59
34931;BME280;21134;49.646;8.560;2023-08-17T07:42:04;100605.91;;;21.55;92.90
34931;BME280;21134;49.646;8.560;2023-08-17T07:44:30;100604.66;;;21.64;92.20
34931;BME280;21134;49.646;8.560;2023-08-17T07:46:58;100604.16;;;21.75;90.97
34931;BME280;21134;49.646;8.560;2023-08-17T07:49:25;100608.16;;;21.63;91.41
34931;BME280;21134;49.646;8.560;2023-08-17T07:51:51;100603.06;;;21.41;91.58
34931;BME280;21134;49.646;8.560;2023-08-17T07:54:18;100610.25;;;21.55;91.72
34931;BME280;21134;49.646;8.560;2023-08-17T07:56:45;100607.84;;;21.50;91.22
34931;BME280;21134;49.646;8.560;2023-08-17T07:59:12;100610.53;;;21.28;92.92
34931;BME280;21134;49.646;8.560;2023-08-17T08:01:38;100613.19;;;21.47;92.51
34931;BME280;21134;49.646;8.560;2023-08-17T08:04:05;100606.19;;;21.68;91.79
34931;BME280;21134;49.646;8.560;2023-08-17T08:06:32;100604.22;;;21.73;91.54
34931;BME280;21134;49.646;8.560;2023-08-17T08:08:58;100607.41;;;21.80;91.87
34931;BME280;21134;49.646;8.560;2023-08-17T08:11:25;100611.13;;;21.74;91.09
34931;BME280;21134;49.646;8.560;2023-08-17T08:13:54;100613.94;;;21.70;90.92
34931;BME280;21134;49.646;8.560;2023-08-17T08:16:20;100617.88;;;21.78;92.09
34931;BME280;21134;49.646;8.560;2023-08-17T08:18:47;100613.38;;;22.01;89.91
34931;BME280;21134;49.646;8.560;2023-08-17T08:21:13;100609.44;;;21.92;90.10
34931;BME280;21134;49.646;8.560;2023-08-17T08:23:40;100615.28;;;21.97;89.58
34931;BME280;21134;49.646;8.560;2023-08-17T08:26:06;100617.13;;;21.95;90.63
34931;BME280;21134;49.646;8.560;2023-08-17T08:28:33;100609.22;;;21.78;91.31
34931;BME280;21134;49.646;8.560;2023-08-17T08:31:02;100596.47;;;21.91;90.34
34931;BME280;21134;49.646;8.560;2023-08-17T08:33:29;100594.16;;;21.85;91.73
34931;BME280;21134;49.646;8.560;2023-08-17T08:35:55;100603.59;;;22.06;90.57
34931;BME280;21134;49.646;8.560;2023-08-17T08:38:22;100603.22;;;22.14;88.67
34931;BME280;21134;49.646;8.560;2023-08-17T08:40:49;100597.41;;;22.27;87.97
34931;BME280;21134;49.646;8.560;2023-08-17T08:43:15;100602.22;;;22.52;88.01
34931;BME280;21134;49.646;8.560;2023-08-17T08:45:42;100592.22;;;22.62;86.82
34931;BME280;21134;49.646;8.560;2023-08-17T08:48:11;100601.25;;;22.55;86.84
34931;BME280;21134;49.646;8.560;2023-08-17T08:50:40;100591.75;;;22.71;85.92
34931;BME280;21134;49.646;8.560;2023-08-17T08:53:10;100596.91;;;22.73;84.92
34931;BME280;21134;49.646;8.560;2023-08-17T08:55:37;100601.94;;;22.41;86.26
34931;BME280;21134;49.646;8.560;2023-08-17T08:58:05;100597.75;;;22.56;86.45
34931;BME280;21134;49.646;8.560;2023-08-17T09:00:33;100593.22;;;22.77;85.36
34931;BME280;21134;49.646;8.560;2023-08-17T09:03:01;100594.19;;;22.74;85.35
34931;BME280;21134;49.646;8.560;2023-08-17T09:05:31;100593.28;;;22.93;84.52
34931;BME280;21134;49.646;8.560;2023-08-17T09:08:00;100594.00;;;22.96;85.47
34931;BME280;21134;49.646;8.560;2023-08-17T09:10:28;100586.28;;;23.28;84.16
34931;BME280;21134;49.646;8.560;2023-08-17T09:12:55;100588.84;;;23.46;83.68
34931;BME280;21134;49.646;8.560;2023-08-17T09:15:21;100585.22;;;23.64;83.61
34931;BME280;21134;49.646;8.560;2023-08-17T09:17:47;100579.38;;;23.76;81.95
34931;BME280;21134;49.646;8.560;2023-08-17T09:20:37;100582.25;;;24.03;81.64
34931;BME280;21134;49.646;8.560;2023-08-17T09:23:04;100584.19;;;24.16;81.00
34931;BME280;21134;49.646;8.560;2023-08-17T09:25:31;100586.69;;;24.33;82.12
34931;BME280;21134;49.646;8.560;2023-08-17T09:27:59;100577.81;;;24.35;80.03
34931;BME280;21134;49.646;8.560;2023-08-17T09:30:28;100572.97;;;24.13;80.12
34931;BME280;21134;49.646;8.560;2023-08-17T09:32:55;100571.53;;;23.92;82.39
34931;BME280;21134;49.646;8.560;2023-08-17T09:35:21;100576.25;;;23.70;82.84
34931;BME280;21134;49.646;8.560;2023-08-17T09:37:50;100570.97;;;23.87;81.78
34931;BME280;21134;49.646;8.560;2023-08-17T09:40:16;100579.69;;;24.18;82.79
34931;BME280;21134;49.646;8.560;2023-08-17T09:42:44;100565.16;;;24.44;82.53
34931;BME280;21134;49.646;8.560;2023-08-17T09:45:10;100579.59;;;24.51;79.86
34931;BME280;21134;49.646;8.560;2023-08-17T09:47:37;100573.44;;;24.36;79.42
34931;BME280;21134;49.646;8.560;2023-08-17T09:50:05;100574.94;;;24.56;79.92
34931;BME280;21134;49.646;8.560;2023-08-17T09:52:32;100571.69;;;24.67;79.61
34931;BME280;21134;49.646;8.560;2023-08-17T09:55:00;100567.75;;;24.59;79.81
34931;BME280;21134;49.646;8.560;2023-08-17T09:57:29;100568.69;;;24.73;80.27
34931;BME280;21134;49.646;8.560;2023-08-17T09:59:55;100574.75;;;24.59;79.51
34931;BME280;21134;49.646;8.560;2023-08-17T10:02:23;100574.53;;;24.32;81.79
34931;BME280;21134;49.646;8.560;2023-08-17T10:04:52;100562.50;;;24.13;80.86
34931;BME280;21134;49.646;8.560;2023-08-17T10:07:19;100569.56;;;24.27;81.27
34931;BME280;21134;49.646;8.560;2023-08-17T10:09:53;100564.81;;;24.34;82.00
34931;BME280;21134;49.646;8.560;2023-08-17T10:12:26;100562.66;;;24.42;80.96
34931;BME280;21134;49.646;8.560;2023-08-17T10:14:58;100571.78;;;24.65;81.03
34931;BME280;21134;49.646;8.560;2023-08-17T10:17:26;100573.44;;;24.52;81.17
34931;BME280;21134;49.646;8.560;2023-08-17T10:19:54;100567.56;;;24.63;80.56
34931;BME280;21134;49.646;8.560;2023-08-17T10:22:27;100570.41;;;24.74;80.18
34931;BME280;21134;49.646;8.560;2023-08-17T10:24:55;100561.91;;;24.70;79.69
34931;BME280;21134;49.646;8.560;2023-08-17T10:27:25;100564.53;;;24.85;79.89
34931;BME280;21134;49.646;8.560;2023-08-17T10:29:52;100567.19;;;24.99;78.17
34931;BME280;21134;49.646;8.560;2023-08-17T10:32:21;100568.84;;;24.86;79.27
34931;BME280;21134;49.646;8.560;2023-08-17T10:34:50;100555.75;;;25.00;80.33
34931;BME280;21134;49.646;8.560;2023-08-17T10:37:18;100558.72;;;25.24;78.36
34931;BME280;21134;49.646;8.560;2023-08-17T10:39:46;100558.72;;;25.24;78.98
34931;BME280;21134;49.646;8.560;2023-08-17T10:42:13;100559.72;;;25.36;77.70
34931;BME280;21134;49.646;8.560;2023-08-17T10:44:44;100551.88;;;25.50;77.99
34931;BME280;21134;49.646;8.560;2023-08-17T10:47:19;100549.44;;;25.33;78.56
34931;BME280;21134;49.646;8.560;2023-08-17T10:49:45;100545.41;;;25.41;77.83
34931;BME280;21134;49.646;8.560;2023-08-17T10:52:13;100551.97;;;25.34;77.65
34931;BME280;21134;49.646;8.560;2023-08-17T10:54:41;100545.78;;;25.49;77.67
34931;BME280;21134;49.646;8.560;2023-08-17T10:57:28;100544.72;;;25.66;77.55
34931;BME280;21134;49.646;8.560;2023-08-17T11:00:13;100543.78;;;25.82;75.93
34931;BME280;21134;49.646;8.560;2023-08-17T11:02:43;100544.13;;;25.90;76.49
34931;BME280;21134;49.646;8.560;2023-08-17T11:05:10;100551.59;;;25.96;76.49
34931;BME280;21134;49.646;8.560;2023-08-17T11:07:39;100552.91;;;26.16;76.24
34931;BME280;21134;49.646;8.560;2023-08-17T11:10:27;100550.13;;;26.32;73.78
34931;BME280;21134;49.646;8.560;2023-08-17T11:12:54;100553.53;;;26.47;73.81
34931;BME280;21134;49.646;8.560;2023-08-17T11:15:23;100554.94;;;26.25;76.08
34931;BME280;21134;49.646;8.560;2023-08-17T11:17:50;100551.41;;;26.26;75.21
34931;BME280;21134;49.646;8.560;2023-08-17T11:20:17;100550.94;;;26.19;75.18
34931;BME280;21134;49.646;8.560;2023-08-17T11:22:44;100553.59;;;26.32;76.55
34931;BME280;21134;49.646;8.560;2023-08-17T11:25:11;100549.06;;;26.49;76.80
34931;BME280;21134;49.646;8.560;2023-08-17T11:27:38;100553.47;;;26.61;75.22
34931;BME280;21134;49.646;8.560;2023-08-17T11:30:06;100550.34;;;26.81;74.37
34931;BME280;21134;49.646;8.560;2023-08-17T11:32:34;100547.31;;;26.75;73.78
34931;BME280;21134;49.646;8.560;2023-08-17T11:35:01;100541.53;;;26.82;73.17
34931;BME280;21134;49.646;8.560;2023-08-17T11:37:28;100538.47;;;27.01;72.66
34931;BME280;21134;49.646;8.560;2023-08-17T11:39:54;100531.84;;;27.08;nan
34931;BME280;21134;49.646;8.560;2023-08-17T11:42:21;100534.47;;;26.96;73.93
34931;BME280;21134;49.646;8.560;2023-08-17T11:44:48;100538.19;;;26.93;72.12
34931;BME280;21134;49.646;8.560;2023-08-17T11:47:15;100541.44;;;26.84;73.07
34931;BME280;21134;49.646;8.560;2023-08-17T11:49:43;100533.00;;;26.92;73.16
34931;BME280;21134;49.646;8.560;2023-08-17T11:52:09;100541.31;;;27.24;71.97
34931;BME280;21134;49.646;8.560;2023-08-17T11:54:40;100531.03;;;27.21;70.94
34931;BME280;21134;49.646;8.560;2023-08-17T11:57:06;100536.88;;;27.37;71.43
34931;BME280;21134;49.646;8.560;2023-08-17T11:59:33;100538.03;;;27.46;71.66
34931;BME280;21134;49.646;8.560;2023-08-17T12:02:00;100543.41;;;27.81;71.68
34931;BME280;21134;49.646;8.560;2023-08-17T12:04:27;100556.78;;;27.78;69.36
34931;BME280;21134;49.646;8.560;2023-08-17T12:06:55;100563.28;;;27.72;71.69
34931;BME280;21134;49.646;8.560;2023-08-17T12:09:22;100558.03;;;27.23;70.76
34931;BME280;21134;49.646;8.560;2023-08-17T12:11:52;100557.81;;;27.13;72.80
34931;BME280;21134;49.646;8.560;2023-08-17T12:14:20;100554.78;;;27.32;72.28
34931;BME280;21134;49.646;8.560;2023-08-17T12:16:47;100555.66;;;27.56;69.96
34931;BME280;21134;49.646;8.560;2023-08-17T12:19:14;100561.00;;;27.68;68.14
34931;BME280;21134;49.646;8.560;2023-08-17T12:21:41;100564.75;;;27.76;71.31
34931;BME280;21134;49.646;8.560;2023-08-17T12:24:10;100558.75;;;27.74;70.33
34931;BME280;21134;49.646;8.560;2023-08-17T12:26:41;100562.38;;;27.61;70.81
34931;BME280;21134;49.646;8.560;2023-08-17T12:29:08;100570.56;;;27.69;70.29
34931;BME280;21134;49.646;8.560;2023-08-17T12:31:34;100574.91;;;27.57;69.44
34931;BME280;21134;49.646;8.560;2023-08-17T12:34:01;100584.09;;;27.26;73.01
34931;BME280;21134;49.646;8.560;2023-08-17T12:36:28;100593.75;;;27.00;72.15
34931;BME280;21134;49.646;8.560;2023-08-17T12:38:55;100581.28;;;27.16;72.75
34931;BME280;21134;49.646;8.560;2023-08-17T12:41:23;100586.72;;;27.13;70.66
34931;BME280;21134;49.646;8.560;2023-08-17T12:43:49;100587.34;;;27.29;69.89
34931;BME280;21134;49.646;8.560;2023-08-17T12:46:19;100585.47;;;27.44;69.69